createdAt,value
2023-02-03T00:00:53.519Z,23.80
2023-02-03T00:03:20.259Z,24.30
2023-02-03T00:05:47.638Z,25.60
2023-02-03T00:08:15.041Z,23.30
2023-02-03T00:10:42.277Z,23.90
2023-02-03T00:13:09.243Z,24.17
2023-02-03T00:15:35.993Z,22.03
2023-02-03T00:18:02.908Z,21.20
2023-02-03T00:20:29.772Z,23.20
2023-02-03T00:23:07.275Z,22.40
2023-02-03T00:25:34.231Z,23.80
2023-02-03T00:28:01.528Z,22.80
2023-02-03T00:30:28.795Z,21.23
2023-02-03T00:32:55.675Z,20.20
2023-02-03T00:35:23.141Z,20.90
2023-02-03T00:37:54.460Z,21.20
2023-02-03T00:40:22.416Z,20.77
2023-02-03T00:42:49.225Z,20.53
2023-02-03T00:45:16.130Z,20.70
2023-02-03T00:47:42.992Z,20.77
2023-02-03T00:50:10.774Z,21.03
2023-02-03T00:52:37.917Z,19.40
2023-02-03T00:55:05.922Z,20.97
2023-02-03T00:57:32.888Z,20.27
2023-02-03T00:59:59.576Z,19.30
2023-02-03T01:02:26.404Z,19.40
2023-02-03T01:04:53.188Z,19.93
2023-02-03T01:07:19.927Z,19.97
2023-02-03T01:09:46.657Z,20.00
2023-02-03T01:12:13.336Z,18.90
2023-02-03T01:14:40.085Z,18.67
2023-02-03T01:17:06.816Z,18.73
2023-02-03T01:19:33.582Z,19.30
2023-02-03T01:22:00.410Z,20.73
2023-02-03T01:24:29.059Z,19.27
2023-02-03T01:26:55.725Z,17.83
2023-02-03T01:29:22.519Z,18.83
2023-02-03T01:31:49.353Z,18.90
2023-02-03T01:34:18.884Z,18.90
2023-02-03T01:36:46.821Z,18.80
2023-02-03T01:39:14.566Z,17.83
2023-02-03T01:41:41.550Z,18.67
2023-02-03T01:44:36.290Z,18.17
2023-02-03T01:47:06.120Z,19.37
2023-02-03T01:49:37.069Z,18.83
2023-02-03T01:52:04.936Z,17.33
2023-02-03T01:54:37.762Z,17.80
2023-02-03T01:57:12.024Z,18.10
2023-02-03T01:59:39.096Z,17.57
2023-02-03T02:02:07.440Z,17.03
2023-02-03T02:04:50.896Z,17.57
2023-02-03T02:07:17.794Z,18.37
2023-02-03T02:09:46.158Z,18.03
2023-02-03T02:12:13.166Z,17.27
2023-02-03T02:14:40.933Z,17.00
2023-02-03T02:17:39.597Z,18.33
2023-02-03T02:20:12.088Z,17.23
2023-02-03T02:22:41.813Z,16.53
2023-02-03T02:25:56.595Z,17.10
2023-02-03T02:28:57.713Z,17.80
2023-02-03T02:32:02.269Z,16.70
2023-02-03T02:34:50.557Z,16.50
2023-02-03T02:37:50.009Z,16.63
2023-02-03T02:40:25.540Z,17.00
2023-02-03T02:43:09.389Z,16.90
2023-02-03T02:45:52.535Z,16.80
2023-02-03T02:48:54.095Z,17.87
2023-02-03T02:51:23.262Z,17.90
2023-02-03T02:53:55.855Z,16.10
2023-02-03T02:56:25.602Z,16.40
2023-02-03T02:58:54.305Z,17.67
2023-02-03T03:01:21.118Z,17.27
2023-02-03T03:03:47.931Z,16.77
2023-02-03T03:06:17.545Z,16.90
2023-02-03T03:08:53.639Z,15.80
2023-02-03T03:11:20.613Z,15.30
2023-02-03T03:13:53.494Z,15.93
2023-02-03T03:16:24.609Z,16.03
2023-02-03T03:19:07.000Z,16.40
2023-02-03T03:21:47.652Z,15.20
2023-02-03T03:24:19.956Z,15.93
2023-02-03T03:27:00.437Z,15.33
2023-02-03T03:29:57.877Z,16.47
2023-02-03T03:32:25.522Z,15.10
2023-02-03T03:34:52.824Z,15.27
2023-02-03T03:38:05.683Z,12.60
2023-02-03T03:40:38.632Z,15.10
2023-02-03T03:43:17.615Z,14.10
2023-02-03T03:45:52.224Z,13.50
2023-02-03T03:48:58.678Z,13.93
2023-02-03T03:51:37.243Z,13.97
2023-02-03T03:54:09.644Z,14.30
2023-02-03T03:56:58.800Z,13.40
2023-02-03T03:59:29.047Z,13.90
2023-02-03T04:01:57.199Z,13.87
2023-02-03T04:04:25.921Z,13.73
2023-02-03T04:06:56.133Z,12.73
2023-02-03T04:09:23.179Z,12.50
2023-02-03T04:12:01.793Z,11.33
2023-02-03T04:14:34.703Z,11.33
2023-02-03T04:17:01.848Z,12.40
2023-02-03T04:19:28.691Z,12.50
2023-02-03T04:21:55.644Z,12.10
2023-02-03T04:24:22.399Z,11.50
2023-02-03T04:26:49.121Z,11.17
2023-02-03T04:29:15.886Z,11.10
2023-02-03T04:31:42.615Z,10.80
2023-02-03T04:34:09.764Z,10.23
2023-02-03T04:36:36.500Z,9.43
2023-02-03T04:39:03.678Z,8.87
2023-02-03T04:41:30.434Z,10.17
2023-02-03T04:43:57.167Z,10.50
2023-02-03T04:46:23.856Z,8.97
2023-02-03T04:48:50.534Z,10.60
2023-02-03T04:51:17.252Z,8.37
2023-02-03T04:53:44.025Z,8.50
2023-02-03T04:56:10.788Z,9.07
2023-02-03T04:58:37.687Z,8.10
2023-02-03T05:01:09.230Z,8.70
2023-02-03T05:03:36.423Z,8.03
2023-02-03T05:06:03.576Z,9.37
2023-02-03T05:08:31.262Z,9.73
2023-02-03T05:10:58.774Z,8.73
2023-02-03T05:13:26.303Z,8.77
2023-02-03T05:15:53.050Z,8.80
2023-02-03T05:18:19.834Z,7.90
2023-02-03T05:20:46.579Z,8.10
2023-02-03T05:23:13.310Z,8.40
2023-02-03T05:25:40.029Z,7.77
2023-02-03T05:28:06.832Z,7.37
2023-02-03T05:30:33.654Z,7.70
2023-02-03T05:33:00.368Z,7.00
2023-02-03T05:35:27.367Z,7.70
2023-02-03T05:37:54.081Z,7.60
2023-02-03T05:40:39.548Z,7.87
2023-02-03T05:43:06.311Z,6.90
2023-02-03T05:45:33.168Z,7.30
2023-02-03T05:47:59.934Z,7.53
2023-02-03T05:50:27.924Z,7.60
2023-02-03T05:52:54.758Z,6.80
2023-02-03T05:55:21.851Z,6.80
2023-02-03T05:57:48.535Z,7.03
2023-02-03T06:00:15.607Z,7.07
2023-02-03T06:02:42.310Z,7.10
2023-02-03T06:05:09.347Z,7.00
2023-02-03T06:07:36.131Z,7.50
2023-02-03T06:10:03.140Z,7.07
2023-02-03T06:12:29.892Z,7.80
2023-02-03T06:14:56.631Z,8.23
2023-02-03T06:17:23.297Z,7.90
2023-02-03T06:19:50.027Z,8.10
2023-02-03T06:22:16.765Z,8.00
2023-02-03T06:24:44.822Z,9.43
2023-02-03T06:27:12.091Z,9.90
2023-02-03T06:29:38.888Z,9.23
2023-02-03T06:32:05.961Z,9.17
2023-02-03T06:34:33.375Z,8.80
2023-02-03T06:37:00.301Z,8.73
2023-02-03T06:39:27.308Z,9.00
2023-02-03T06:41:55.757Z,10.37
2023-02-03T06:44:22.971Z,9.50
2023-02-03T06:46:50.792Z,9.37
2023-02-03T06:49:18.032Z,10.50
2023-02-03T06:51:45.480Z,9.60
2023-02-03T06:54:13.778Z,10.07
2023-02-03T06:56:40.718Z,9.70
2023-02-03T06:59:08.823Z,10.07
2023-02-03T07:01:36.212Z,9.90
2023-02-03T07:04:03.768Z,11.27
2023-02-03T07:06:33.848Z,10.20
2023-02-03T07:09:02.664Z,10.50
2023-02-03T07:11:29.663Z,10.23
2023-02-03T07:13:56.560Z,10.40
2023-02-03T07:16:23.776Z,10.13
2023-02-03T07:18:50.528Z,10.83
2023-02-03T07:21:17.753Z,11.20
2023-02-03T07:23:47.543Z,11.20
2023-02-03T07:26:14.421Z,11.10
2023-02-03T07:28:41.153Z,10.57
2023-02-03T07:31:10.982Z,11.03
2023-02-03T07:33:39.054Z,11.53
2023-02-03T07:36:07.022Z,12.20
2023-02-03T07:38:33.918Z,11.57
2023-02-03T07:41:00.703Z,11.87
2023-02-03T07:43:27.396Z,12.37
2023-02-03T07:45:54.096Z,12.40
2023-02-03T07:48:20.974Z,11.87
2023-02-03T07:50:50.848Z,12.90
2023-02-03T07:53:17.854Z,11.50
2023-02-03T07:55:44.621Z,11.53
2023-02-03T07:58:11.640Z,12.90
2023-02-03T08:00:38.428Z,12.53
2023-02-03T08:03:05.191Z,12.27
2023-02-03T08:05:31.915Z,12.40
2023-02-03T08:07:59.482Z,13.03
2023-02-03T08:10:26.705Z,11.40
2023-02-03T08:12:55.241Z,13.43
2023-02-03T08:15:21.999Z,13.43
2023-02-03T08:17:51.961Z,12.93
2023-02-03T08:20:19.044Z,13.17
2023-02-03T08:22:46.064Z,13.17
2023-02-03T08:25:13.433Z,12.27
2023-02-03T08:27:40.934Z,11.83
2023-02-03T08:30:11.751Z,12.30
2023-02-03T08:32:38.425Z,11.20
2023-02-03T08:35:05.761Z,10.00
2023-02-03T08:37:32.687Z,9.63
2023-02-03T08:40:00.009Z,10.03
2023-02-03T08:42:26.870Z,8.70
2023-02-03T08:44:53.556Z,9.50
2023-02-03T08:47:20.300Z,9.63
2023-02-03T08:49:47.446Z,10.83
2023-02-03T08:52:14.953Z,9.80
2023-02-03T08:54:43.151Z,9.70
2023-02-03T08:57:10.060Z,10.20
2023-02-03T08:59:40.258Z,9.67
2023-02-03T09:02:11.450Z,9.30
2023-02-03T09:04:38.698Z,9.80
2023-02-03T09:07:05.420Z,10.03
2023-02-03T09:09:32.357Z,8.90
2023-02-03T09:12:02.466Z,9.07
2023-02-03T09:14:30.010Z,9.03
2023-02-03T09:16:57.233Z,9.33
2023-02-03T09:19:24.146Z,10.57
2023-02-03T09:21:51.403Z,9.87
2023-02-03T09:24:18.851Z,9.77
2023-02-03T09:26:45.862Z,9.70
2023-02-03T09:29:13.053Z,9.67
2023-02-03T09:31:39.951Z,10.53
2023-02-03T09:34:06.897Z,9.90
2023-02-03T09:36:34.199Z,10.57
2023-02-03T09:39:00.989Z,10.40
2023-02-03T09:41:36.797Z,10.00
2023-02-03T09:44:31.186Z,11.20
2023-02-03T09:47:02.680Z,10.27
2023-02-03T09:49:41.530Z,9.63
2023-02-03T09:52:17.540Z,8.80
2023-02-03T09:55:05.342Z,9.83
2023-02-03T09:57:40.683Z,9.70
2023-02-03T10:00:21.964Z,10.77
2023-02-03T10:03:22.490Z,9.80
2023-02-03T10:06:08.101Z,9.83
2023-02-03T10:09:08.104Z,8.63
2023-02-03T10:11:40.723Z,9.30
2023-02-03T10:14:10.236Z,9.73
2023-02-03T10:17:12.152Z,9.40
2023-02-03T10:19:52.680Z,9.80
2023-02-03T10:22:25.911Z,9.60
2023-02-03T10:24:55.738Z,7.90
2023-02-03T10:27:24.534Z,8.20
2023-02-03T10:30:04.277Z,7.67
2023-02-03T10:32:31.440Z,8.10
2023-02-03T10:34:58.141Z,8.67
2023-02-03T10:37:32.079Z,8.33
2023-02-03T10:40:00.749Z,5.97
2023-02-03T10:42:50.104Z,6.53
2023-02-03T10:45:17.247Z,5.43
2023-02-03T10:47:55.006Z,4.60
2023-02-03T10:50:31.895Z,4.80
2023-02-03T10:53:20.486Z,5.10
2023-02-03T10:55:50.327Z,4.63
2023-02-03T10:58:25.705Z,3.60
2023-02-03T11:01:05.276Z,4.13
2023-02-03T11:03:32.165Z,3.50
2023-02-03T11:06:13.386Z,3.47
2023-02-03T11:08:43.313Z,3.40
2023-02-03T11:11:24.969Z,4.03
2023-02-03T11:14:01.561Z,4.10
2023-02-03T11:16:29.770Z,3.63
2023-02-03T11:18:58.473Z,3.40
2023-02-03T11:21:44.101Z,3.83
2023-02-03T11:24:14.216Z,3.70
2023-02-03T11:26:45.651Z,3.20
2023-02-03T11:29:18.361Z,3.40
2023-02-03T11:31:49.881Z,3.07
2023-02-03T11:34:24.121Z,4.57
2023-02-03T11:36:51.103Z,3.93
2023-02-03T11:39:26.434Z,4.57
2023-02-03T11:41:54.091Z,4.50
2023-02-03T11:44:24.258Z,4.07
2023-02-03T11:46:55.745Z,4.33
2023-02-03T11:50:10.909Z,6.03
2023-02-03T11:52:49.583Z,5.83
2023-02-03T11:55:34.832Z,5.07
2023-02-03T11:58:07.212Z,5.13
2023-02-03T12:00:49.947Z,5.13
2023-02-03T12:03:40.265Z,5.33
2023-02-03T12:06:56.266Z,5.20
2023-02-03T12:09:57.618Z,5.37
2023-02-03T12:12:27.570Z,5.70
2023-02-03T12:15:13.044Z,5.50
2023-02-03T12:18:10.568Z,5.20
2023-02-03T12:21:08.104Z,4.90
2023-02-03T12:23:52.712Z,5.37
2023-02-03T12:26:26.395Z,6.37
2023-02-03T12:29:07.605Z,5.40
2023-02-03T12:31:44.403Z,4.77
2023-02-03T12:34:27.809Z,5.77
2023-02-03T12:37:10.363Z,6.00
2023-02-03T12:39:46.404Z,5.40
2023-02-03T12:42:24.648Z,4.90
2023-02-03T12:44:58.114Z,4.80
2023-02-03T12:47:44.057Z,5.67
2023-02-03T12:50:10.881Z,5.80
2023-02-03T12:53:05.987Z,7.50
2023-02-03T12:55:38.959Z,7.47
2023-02-03T12:58:11.714Z,5.90
2023-02-03T13:00:50.223Z,5.40
2023-02-03T13:03:48.980Z,5.60
2023-02-03T13:06:32.251Z,6.13
2023-02-03T13:09:33.084Z,5.70
2023-02-03T13:12:24.840Z,5.37
2023-02-03T13:14:59.019Z,4.93
2023-02-03T13:17:41.164Z,7.00
2023-02-03T13:20:20.575Z,4.10
2023-02-03T13:22:47.353Z,5.47
2023-02-03T13:25:24.660Z,4.77
2023-02-03T13:28:03.509Z,5.17
2023-02-03T13:30:58.039Z,4.60
2023-02-03T13:34:03.126Z,4.60
2023-02-03T13:37:10.435Z,5.90
2023-02-03T13:39:39.952Z,5.47
2023-02-03T13:42:22.529Z,5.37
2023-02-03T13:44:53.865Z,4.73
2023-02-03T13:47:27.789Z,5.67
2023-02-03T13:50:07.137Z,5.50
2023-02-03T13:52:38.577Z,4.50
2023-02-03T13:55:06.165Z,5.30
2023-02-03T13:57:38.318Z,4.33
2023-02-03T14:00:27.907Z,5.70
2023-02-03T14:02:56.114Z,5.37
2023-02-03T14:05:44.557Z,5.73
2023-02-03T14:08:29.358Z,5.00
2023-02-03T14:11:33.228Z,4.40
2023-02-03T14:14:22.765Z,4.20
2023-02-03T14:16:54.654Z,5.00
2023-02-03T14:19:21.692Z,4.90
2023-02-03T14:21:54.297Z,5.13
2023-02-03T14:24:22.319Z,4.43
2023-02-03T14:26:55.122Z,5.60
2023-02-03T14:29:24.928Z,4.40
2023-02-03T14:32:12.170Z,4.87
2023-02-03T14:34:46.783Z,5.67
2023-02-03T14:37:31.465Z,5.30
2023-02-03T14:40:19.496Z,5.67
2023-02-03T14:43:16.992Z,5.70
2023-02-03T14:46:04.761Z,5.50
2023-02-03T14:48:43.803Z,5.60
2023-02-03T14:51:16.819Z,5.37
2023-02-03T14:54:03.427Z,5.50
2023-02-03T14:57:21.222Z,5.17
2023-02-03T15:00:11.786Z,5.80
2023-02-03T15:03:10.405Z,4.17
2023-02-03T15:05:50.764Z,5.20
2023-02-03T15:08:33.316Z,5.43
2023-02-03T15:11:00.898Z,4.70
2023-02-03T15:13:29.906Z,5.40
2023-02-03T15:16:12.867Z,5.37
2023-02-03T15:18:40.870Z,5.03
2023-02-03T15:21:19.328Z,4.50
2023-02-03T15:23:48.445Z,4.03
2023-02-03T15:26:17.539Z,4.17
2023-02-03T15:28:44.576Z,4.53
2023-02-03T15:31:46.041Z,4.50
2023-02-03T15:34:23.441Z,5.23
2023-02-03T15:36:54.292Z,4.13
2023-02-03T15:39:59.392Z,4.17
2023-02-03T15:43:09.442Z,4.90
2023-02-03T15:45:46.095Z,5.00
2023-02-03T15:48:29.137Z,4.07
2023-02-03T15:51:02.997Z,3.80
2023-02-03T15:53:46.702Z,5.20
2023-02-03T15:56:26.512Z,4.30
2023-02-03T15:58:53.458Z,5.30
2023-02-03T16:01:23.906Z,5.37
2023-02-03T16:03:53.308Z,5.33
2023-02-03T16:06:37.013Z,4.77
2023-02-03T16:09:06.919Z,5.10
2023-02-03T16:11:34.868Z,5.80
2023-02-03T16:14:07.555Z,4.80
2023-02-03T16:16:43.777Z,4.80
2023-02-03T16:19:20.436Z,4.40
2023-02-03T16:21:50.165Z,5.13
2023-02-03T16:24:41.022Z,4.67
2023-02-03T16:27:26.192Z,5.37
2023-02-03T16:30:41.354Z,4.70
2023-02-03T16:33:32.568Z,3.90
2023-02-03T16:36:32.103Z,3.90
2023-02-03T16:39:20.743Z,6.40
2023-02-03T16:42:06.167Z,5.27
2023-02-03T16:44:51.743Z,5.03
2023-02-03T16:47:48.910Z,5.83
2023-02-03T16:50:39.045Z,4.80
2023-02-03T16:53:19.463Z,5.30
2023-02-03T16:55:47.154Z,3.47
2023-02-03T16:58:14.129Z,4.73
2023-02-03T17:00:43.339Z,4.87
2023-02-03T17:03:12.758Z,5.10
2023-02-03T17:05:42.384Z,5.87
2023-02-03T17:08:09.559Z,5.57
2023-02-03T17:10:37.481Z,5.40
2023-02-03T17:13:05.155Z,5.33
2023-02-03T17:15:32.202Z,5.00
2023-02-03T17:17:59.349Z,4.60
2023-02-03T17:20:26.542Z,5.60
2023-02-03T17:22:54.666Z,5.50
2023-02-03T17:25:21.954Z,5.13
2023-02-03T17:27:48.953Z,6.50
2023-02-03T17:30:15.934Z,5.00
2023-02-03T17:32:42.716Z,4.90
2023-02-03T17:35:09.469Z,4.00
2023-02-03T17:37:36.458Z,5.63
2023-02-03T17:54:06.210Z,6.37
2023-02-03T17:56:35.671Z,4.07
2023-02-03T17:59:04.164Z,3.73
2023-02-03T18:01:32.075Z,5.03
2023-02-03T18:04:01.519Z,3.90
2023-02-03T18:06:29.835Z,3.93
2023-02-03T18:09:01.915Z,4.50
2023-02-03T18:11:30.366Z,5.43
2023-02-03T18:13:57.473Z,6.73
2023-02-03T18:16:28.971Z,5.03
2023-02-03T18:18:57.072Z,3.73
2023-02-03T18:21:24.755Z,4.97
2023-02-03T18:23:51.627Z,3.63
2023-02-03T18:26:19.955Z,4.87
2023-02-03T18:28:47.192Z,4.70
2023-02-03T18:31:17.540Z,4.70
2023-02-03T18:33:46.258Z,4.37
2023-02-03T18:36:13.525Z,4.40
2023-02-03T18:38:42.404Z,5.00
2023-02-03T18:41:13.632Z,4.60
2023-02-03T18:43:40.910Z,4.50
2023-02-03T18:46:09.577Z,4.50
2023-02-03T18:48:36.739Z,4.60
2023-02-03T18:51:03.685Z,4.67
2023-02-03T18:53:31.216Z,4.60
2023-02-03T18:55:58.009Z,4.83
2023-02-03T18:58:24.690Z,5.13
2023-02-03T19:00:51.511Z,4.27
2023-02-03T19:03:21.162Z,4.90
2023-02-03T19:05:47.986Z,4.80
2023-02-03T19:08:14.686Z,5.30
2023-02-03T19:10:41.411Z,5.63
2023-02-03T19:13:08.129Z,5.73
2023-02-03T19:15:35.274Z,4.20
2023-02-03T19:18:02.049Z,4.50
2023-02-03T19:20:29.027Z,5.67
2023-02-03T19:22:56.782Z,4.50
2023-02-03T19:25:23.895Z,5.60
2023-02-03T19:27:50.855Z,4.63
2023-02-03T19:30:17.763Z,5.63
2023-02-03T19:32:44.573Z,4.10
2023-02-03T19:35:12.622Z,4.97
2023-02-03T19:37:39.509Z,4.97
2023-02-03T19:40:07.033Z,5.23
2023-02-03T19:42:33.735Z,4.67
2023-02-03T19:45:00.542Z,4.30
2023-02-03T19:47:27.642Z,5.83
2023-02-03T19:49:54.397Z,4.13
2023-02-03T19:52:21.140Z,4.70
2023-02-03T19:54:47.945Z,5.40
2023-02-03T19:57:14.711Z,5.43
2023-02-03T19:59:41.475Z,4.57
2023-02-03T20:02:14.216Z,4.90
2023-02-03T20:04:42.193Z,5.70
2023-02-03T20:07:08.905Z,5.80
2023-02-03T20:09:35.798Z,4.87
2023-02-03T20:12:02.535Z,4.90
2023-02-03T20:14:29.874Z,4.90
2023-02-03T20:16:56.609Z,5.20
2023-02-03T20:19:23.416Z,4.50
2023-02-03T20:21:50.298Z,5.23
2023-02-03T20:24:17.277Z,6.20
2023-02-03T20:26:44.016Z,5.10
2023-02-03T20:29:10.797Z,4.70
2023-02-03T20:31:37.539Z,4.63
2023-02-03T20:34:04.299Z,4.30
2023-02-03T20:36:31.018Z,4.67
2023-02-03T20:38:57.788Z,4.73
2023-02-03T20:41:24.753Z,4.90
2023-02-03T20:43:51.499Z,4.73
2023-02-03T20:46:19.505Z,4.83
2023-02-03T20:48:46.277Z,5.30
2023-02-03T20:51:18.683Z,4.50
2023-02-03T20:53:45.472Z,5.20
2023-02-03T20:56:14.810Z,5.47
2023-02-03T20:58:42.527Z,5.90
2023-02-03T21:01:27.848Z,5.23
2023-02-03T21:04:13.053Z,5.30
2023-02-03T21:06:39.896Z,4.80
2023-02-03T21:09:15.926Z,5.40
2023-02-03T21:11:43.465Z,4.97
2023-02-03T21:14:39.180Z,6.90
2023-02-03T21:17:15.757Z,5.53
2023-02-03T21:19:42.621Z,5.40
2023-02-03T21:22:18.070Z,5.50
2023-02-03T21:24:52.284Z,5.50
2023-02-03T21:27:28.714Z,5.00
2023-02-03T21:29:57.579Z,5.67
2023-02-03T21:32:26.565Z,5.20
2023-02-03T21:34:53.305Z,5.00
2023-02-03T21:37:23.068Z,5.10
2023-02-03T21:39:50.492Z,6.13
2023-02-03T21:42:43.557Z,4.90
2023-02-03T21:45:22.452Z,6.17
2023-02-03T21:47:51.064Z,4.80
2023-02-03T21:50:31.682Z,6.00
2023-02-03T21:53:07.879Z,4.80
2023-02-03T21:55:35.816Z,5.73
2023-02-03T21:58:23.495Z,5.77
2023-02-03T22:00:55.687Z,5.60
2023-02-03T22:03:22.881Z,4.70
2023-02-03T22:05:49.909Z,6.40
2023-02-03T22:08:23.941Z,5.23
2023-02-03T22:10:50.861Z,5.03
2023-02-03T22:13:17.761Z,4.90
2023-02-03T22:15:46.289Z,5.40
2023-02-03T22:18:12.989Z,5.93
2023-02-03T22:20:39.704Z,6.13
2023-02-03T22:23:06.468Z,5.13
2023-02-03T22:25:33.267Z,6.10
2023-02-03T22:28:00.046Z,4.83
2023-02-03T22:30:26.973Z,5.30
2023-02-03T22:32:53.789Z,8.10
2023-02-03T22:35:20.743Z,5.30
2023-02-03T22:37:47.629Z,5.80
2023-02-03T22:40:14.421Z,5.93
2023-02-03T22:42:41.255Z,5.80
2023-02-03T22:45:09.124Z,5.20
2023-02-03T22:47:36.001Z,5.40
2023-02-03T22:50:04.587Z,5.20
2023-02-03T22:52:31.564Z,5.53
2023-02-03T22:54:58.329Z,5.17
2023-02-03T22:57:25.130Z,5.07
2023-02-03T22:59:51.926Z,6.20
2023-02-03T23:02:18.768Z,5.10
2023-02-03T23:04:45.764Z,6.63
2023-02-03T23:07:13.067Z,4.47
2023-02-03T23:09:40.232Z,6.47
2023-02-03T23:12:07.289Z,5.77
2023-02-03T23:14:34.287Z,5.47
2023-02-03T23:17:01.476Z,4.27
2023-02-03T23:19:28.263Z,5.50
2023-02-03T23:21:55.063Z,4.67
2023-02-03T23:24:21.913Z,5.20
2023-02-03T23:26:48.631Z,6.70
2023-02-03T23:29:15.766Z,5.33
2023-02-03T23:31:42.736Z,6.23
2023-02-03T23:34:28.171Z,5.30
2023-02-03T23:36:54.889Z,6.07
2023-02-03T23:39:21.955Z,5.13
2023-02-03T23:41:48.654Z,6.33
2023-02-03T23:44:15.433Z,5.50
2023-02-03T23:46:42.207Z,5.00
2023-02-03T23:49:08.904Z,4.90
2023-02-03T23:51:35.587Z,5.83
2023-02-03T23:54:02.287Z,5.20
2023-02-03T23:56:29.042Z,4.53
2023-02-03T23:58:55.744Z,5.87
